sensor_id;sensor_type;location;lat;lon;timestamp;P1;durP1;ratioP1;P2;durP2;ratioP2
62071;SDS011;48031;48.542;13.232;2024-02-16T00:01:59;6.65;;;4.20;;
62071;SDS011;48031;48.542;13.232;2024-02-16T00:06:03;4.30;;;2.63;;
62071;SDS011;48031;48.542;13.232;2024-02-16T00:10:05;5.82;;;3.38;;
62071;SDS011;48031;48.542;13.232;2024-02-16T00:14:09;6.20;;;3.17;;
62071;SDS011;48031;48.542;13.232;2024-02-16T00:18:11;5.35;;;3.53;;
62071;SDS011;48031;48.542;13.232;2024-02-16T00:22:14;6.35;;;3.90;;
62071;SDS011;48031;48.542;13.232;2024-02-16T00:26:16;3.20;;;2.88;;
62071;SDS011;48031;48.542;13.232;2024-02-16T00:30:18;5.30;;;3.38;;
62071;SDS011;48031;48.542;13.232;2024-02-16T00:34:20;4.85;;;2.78;;
62071;SDS011;48031;48.542;13.232;2024-02-16T00:38:22;9.40;;;4.97;;
62071;SDS011;48031;48.542;13.232;2024-02-16T00:42:25;7.32;;;3.78;;
62071;SDS011;48031;48.542;13.232;2024-02-16T00:46:28;5.93;;;4.45;;
62071;SDS011;48031;48.542;13.232;2024-02-16T00:50:30;5.78;;;3.60;;
62071;SDS011;48031;48.542;13.232;2024-02-16T00:54:31;9.88;;;6.10;;
62071;SDS011;48031;48.542;13.232;2024-02-16T00:58:33;12.57;;;5.32;;
62071;SDS011;48031;48.542;13.232;2024-02-16T01:02:35;5.78;;;3.95;;
62071;SDS011;48031;48.542;13.232;2024-02-16T01:06:37;7.82;;;4.70;;
62071;SDS011;48031;48.542;13.232;2024-02-16T01:10:39;7.50;;;4.75;;
62071;SDS011;48031;48.542;13.232;2024-02-16T01:14:41;8.13;;;5.35;;
62071;SDS011;48031;48.542;13.232;2024-02-16T01:18:42;4.32;;;3.30;;
62071;SDS011;48031;48.542;13.232;2024-02-16T01:22:46;9.55;;;5.75;;
62071;SDS011;48031;48.542;13.232;2024-02-16T01:26:48;6.45;;;3.63;;
62071;SDS011;48031;48.542;13.232;2024-02-16T01:30:50;8.68;;;5.75;;
62071;SDS011;48031;48.542;13.232;2024-02-16T01:34:52;9.32;;;6.10;;
62071;SDS011;48031;48.542;13.232;2024-02-16T01:38:54;8.50;;;5.25;;
62071;SDS011;48031;48.542;13.232;2024-02-16T01:42:56;6.72;;;5.15;;
62071;SDS011;48031;48.542;13.232;2024-02-16T01:46:58;5.15;;;3.63;;
62071;SDS011;48031;48.542;13.232;2024-02-16T01:50:59;6.00;;;3.90;;
62071;SDS011;48031;48.542;13.232;2024-02-16T01:55:05;9.05;;;5.97;;
62071;SDS011;48031;48.542;13.232;2024-02-16T01:59:11;10.38;;;6.75;;
62071;SDS011;48031;48.542;13.232;2024-02-16T02:03:14;8.35;;;5.20;;
62071;SDS011;48031;48.542;13.232;2024-02-16T02:07:17;8.27;;;4.30;;
62071;SDS011;48031;48.542;13.232;2024-02-16T02:11:20;6.10;;;4.20;;
62071;SDS011;48031;48.542;13.232;2024-02-16T02:15:22;6.60;;;3.63;;
62071;SDS011;48031;48.542;13.232;2024-02-16T02:19:24;8.30;;;5.43;;
62071;SDS011;48031;48.542;13.232;2024-02-16T02:23:26;8.07;;;4.97;;
62071;SDS011;48031;48.542;13.232;2024-02-16T02:27:28;10.73;;;5.75;;
62071;SDS011;48031;48.542;13.232;2024-02-16T02:31:30;6.70;;;4.03;;
62071;SDS011;48031;48.542;13.232;2024-02-16T02:35:32;10.88;;;5.65;;
62071;SDS011;48031;48.542;13.232;2024-02-16T02:39:34;6.03;;;4.18;;
62071;SDS011;48031;48.542;13.232;2024-02-16T02:43:37;6.40;;;4.30;;
62071;SDS011;48031;48.542;13.232;2024-02-16T02:47:39;6.22;;;4.45;;
62071;SDS011;48031;48.542;13.232;2024-02-16T02:51:41;6.55;;;4.05;;
62071;SDS011;48031;48.542;13.232;2024-02-16T02:55:43;9.20;;;5.72;;
62071;SDS011;48031;48.542;13.232;2024-02-16T02:59:44;9.90;;;6.05;;
62071;SDS011;48031;48.542;13.232;2024-02-16T03:03:48;9.60;;;5.40;;
62071;SDS011;48031;48.542;13.232;2024-02-16T03:07:50;12.15;;;6.75;;
62071;SDS011;48031;48.542;13.232;2024-02-16T03:11:53;9.52;;;6.15;;
62071;SDS011;48031;48.542;13.232;2024-02-16T03:15:54;10.82;;;6.10;;
62071;SDS011;48031;48.542;13.232;2024-02-16T03:19:56;11.98;;;7.45;;
62071;SDS011;48031;48.542;13.232;2024-02-16T03:23:58;10.45;;;6.25;;
62071;SDS011;48031;48.542;13.232;2024-02-16T03:28:00;11.57;;;6.07;;
62071;SDS011;48031;48.542;13.232;2024-02-16T03:32:02;12.15;;;6.95;;
62071;SDS011;48031;48.542;13.232;2024-02-16T03:36:04;8.27;;;4.65;;
62071;SDS011;48031;48.542;13.232;2024-02-16T03:40:06;10.07;;;5.55;;
62071;SDS011;48031;48.542;13.232;2024-02-16T03:44:09;9.27;;;5.93;;
62071;SDS011;48031;48.542;13.232;2024-02-16T03:48:11;11.95;;;7.20;;
62071;SDS011;48031;48.542;13.232;2024-02-16T03:52:13;10.90;;;6.32;;
62071;SDS011;48031;48.542;13.232;2024-02-16T03:56:19;12.80;;;6.80;;
62071;SDS011;48031;48.542;13.232;2024-02-16T04:00:21;13.00;;;7.55;;
62071;SDS011;48031;48.542;13.232;2024-02-16T04:04:22;14.90;;;8.73;;
62071;SDS011;48031;48.542;13.232;2024-02-16T04:08:24;14.68;;;7.80;;
62071;SDS011;48031;48.542;13.232;2024-02-16T04:12:26;12.90;;;7.15;;
62071;SDS011;48031;48.542;13.232;2024-02-16T04:16:28;12.50;;;7.07;;
62071;SDS011;48031;48.542;13.232;2024-02-16T04:20:30;14.25;;;7.35;;
62071;SDS011;48031;48.542;13.232;2024-02-16T04:24:33;12.57;;;7.15;;
62071;SDS011;48031;48.542;13.232;2024-02-16T04:28:35;13.13;;;7.78;;
62071;SDS011;48031;48.542;13.232;2024-02-16T04:32:37;14.32;;;8.60;;
62071;SDS011;48031;48.542;13.232;2024-02-16T04:36:40;11.13;;;7.00;;
62071;SDS011;48031;48.542;13.232;2024-02-16T04:40:42;19.30;;;9.30;;
62071;SDS011;48031;48.542;13.232;2024-02-16T04:44:44;15.38;;;7.72;;
62071;SDS011;48031;48.542;13.232;2024-02-16T04:48:47;14.73;;;7.78;;
62071;SDS011;48031;48.542;13.232;2024-02-16T04:52:49;14.48;;;8.25;;
62071;SDS011;48031;48.542;13.232;2024-02-16T04:56:51;16.35;;;9.18;;
62071;SDS011;48031;48.542;13.232;2024-02-16T05:00:53;14.48;;;6.95;;
62071;SDS011;48031;48.542;13.232;2024-02-16T05:04:55;14.05;;;7.43;;
62071;SDS011;48031;48.542;13.232;2024-02-16T05:08:59;16.23;;;7.78;;
62071;SDS011;48031;48.542;13.232;2024-02-16T05:13:01;19.67;;;9.02;;
62071;SDS011;48031;48.542;13.232;2024-02-16T05:17:04;15.80;;;8.30;;
62071;SDS011;48031;48.542;13.232;2024-02-16T05:21:06;12.75;;;7.15;;
62071;SDS011;48031;48.542;13.232;2024-02-16T05:25:08;16.52;;;8.85;;
62071;SDS011;48031;48.542;13.232;2024-02-16T05:29:11;13.65;;;7.10;;
62071;SDS011;48031;48.542;13.232;2024-02-16T05:33:13;19.00;;;10.48;;
62071;SDS011;48031;48.542;13.232;2024-02-16T05:37:15;20.58;;;9.57;;
62071;SDS011;48031;48.542;13.232;2024-02-16T05:41:18;13.65;;;7.60;;
62071;SDS011;48031;48.542;13.232;2024-02-16T05:45:20;15.32;;;7.47;;
62071;SDS011;48031;48.542;13.232;2024-02-16T05:49:25;16.00;;;8.38;;
62071;SDS011;48031;48.542;13.232;2024-02-16T05:53:27;21.75;;;11.35;;
62071;SDS011;48031;48.542;13.232;2024-02-16T05:57:29;18.65;;;8.95;;
62071;SDS011;48031;48.542;13.232;2024-02-16T06:01:32;17.85;;;8.52;;
62071;SDS011;48031;48.542;13.232;2024-02-16T06:05:34;15.80;;;8.60;;
62071;SDS011;48031;48.542;13.232;2024-02-16T06:09:36;21.63;;;9.40;;
62071;SDS011;48031;48.542;13.232;2024-02-16T06:13:39;15.95;;;8.23;;
62071;SDS011;48031;48.542;13.232;2024-02-16T06:17:41;17.08;;;8.27;;
62071;SDS011;48031;48.542;13.232;2024-02-16T06:21:43;20.42;;;9.82;;
62071;SDS011;48031;48.542;13.232;2024-02-16T06:25:45;20.55;;;9.32;;
62071;SDS011;48031;48.542;13.232;2024-02-16T06:29:48;16.63;;;7.43;;
62071;SDS011;48031;48.542;13.232;2024-02-16T06:33:50;30.75;;;9.27;;
62071;SDS011;48031;48.542;13.232;2024-02-16T06:37:52;19.05;;;8.48;;
62071;SDS011;48031;48.542;13.232;2024-02-16T06:41:55;12.77;;;6.75;;
62071;SDS011;48031;48.542;13.232;2024-02-16T06:45:56;15.05;;;6.43;;
62071;SDS011;48031;48.542;13.232;2024-02-16T06:49:58;17.48;;;8.60;;
62071;SDS011;48031;48.542;13.232;2024-02-16T06:54:00;26.05;;;11.60;;
62071;SDS011;48031;48.542;13.232;2024-02-16T06:58:02;19.98;;;10.50;;
62071;SDS011;48031;48.542;13.232;2024-02-16T07:02:05;18.17;;;9.23;;
62071;SDS011;48031;48.542;13.232;2024-02-16T07:06:07;15.52;;;7.95;;
62071;SDS011;48031;48.542;13.232;2024-02-16T07:10:11;14.75;;;8.45;;
62071;SDS011;48031;48.542;13.232;2024-02-16T07:14:15;15.55;;;8.10;;
62071;SDS011;48031;48.542;13.232;2024-02-16T07:18:17;14.55;;;7.93;;
62071;SDS011;48031;48.542;13.232;2024-02-16T07:22:19;19.67;;;8.55;;
62071;SDS011;48031;48.542;13.232;2024-02-16T07:26:21;16.10;;;8.23;;
62071;SDS011;48031;48.542;13.232;2024-02-16T07:30:24;19.33;;;9.60;;
62071;SDS011;48031;48.542;13.232;2024-02-16T07:34:37;23.45;;;10.93;;
62071;SDS011;48031;48.542;13.232;2024-02-16T07:38:40;21.13;;;11.43;;
62071;SDS011;48031;48.542;13.232;2024-02-16T07:42:41;22.98;;;11.55;;
62071;SDS011;48031;48.542;13.232;2024-02-16T07:46:44;27.77;;;13.77;;
62071;SDS011;48031;48.542;13.232;2024-02-16T07:50:48;28.20;;;13.25;;
62071;SDS011;48031;48.542;13.232;2024-02-16T07:54:52;23.02;;;11.95;;
62071;SDS011;48031;48.542;13.232;2024-02-16T07:58:55;21.65;;;11.73;;
62071;SDS011;48031;48.542;13.232;2024-02-16T08:02:57;24.48;;;11.63;;
62071;SDS011;48031;48.542;13.232;2024-02-16T08:06:59;25.80;;;11.57;;
62071;SDS011;48031;48.542;13.232;2024-02-16T08:11:03;23.70;;;12.55;;
62071;SDS011;48031;48.542;13.232;2024-02-16T08:15:05;26.35;;;14.32;;
62071;SDS011;48031;48.542;13.232;2024-02-16T08:19:11;22.83;;;12.23;;
62071;SDS011;48031;48.542;13.232;2024-02-16T08:23:15;20.92;;;11.38;;
62071;SDS011;48031;48.542;13.232;2024-02-16T08:27:17;24.65;;;11.85;;
62071;SDS011;48031;48.542;13.232;2024-02-16T08:31:19;22.45;;;12.13;;
62071;SDS011;48031;48.542;13.232;2024-02-16T08:35:21;18.85;;;10.18;;
62071;SDS011;48031;48.542;13.232;2024-02-16T08:39:25;23.13;;;11.45;;
62071;SDS011;48031;48.542;13.232;2024-02-16T08:43:27;27.83;;;14.18;;
62071;SDS011;48031;48.542;13.232;2024-02-16T08:47:28;25.23;;;13.07;;
62071;SDS011;48031;48.542;13.232;2024-02-16T08:51:33;23.15;;;12.30;;
62071;SDS011;48031;48.542;13.232;2024-02-16T08:55:35;26.13;;;13.60;;
62071;SDS011;48031;48.542;13.232;2024-02-16T08:59:37;27.38;;;14.60;;
62071;SDS011;48031;48.542;13.232;2024-02-16T09:03:39;21.65;;;11.43;;
62071;SDS011;48031;48.542;13.232;2024-02-16T09:07:43;28.67;;;13.93;;
62071;SDS011;48031;48.542;13.232;2024-02-16T09:11:45;22.10;;;11.68;;
62071;SDS011;48031;48.542;13.232;2024-02-16T09:15:46;22.45;;;12.32;;
62071;SDS011;48031;48.542;13.232;2024-02-16T09:19:49;25.00;;;12.82;;
62071;SDS011;48031;48.542;13.232;2024-02-16T09:23:51;24.52;;;10.77;;
62071;SDS011;48031;48.542;13.232;2024-02-16T09:27:53;23.45;;;12.23;;
62071;SDS011;48031;48.542;13.232;2024-02-16T09:31:55;18.73;;;10.57;;
62071;SDS011;48031;48.542;13.232;2024-02-16T09:35:56;21.42;;;10.65;;
62071;SDS011;48031;48.542;13.232;2024-02-16T09:39:58;23.15;;;10.43;;
62071;SDS011;48031;48.542;13.232;2024-02-16T09:44:01;23.35;;;12.77;;
62071;SDS011;48031;48.542;13.232;2024-02-16T09:48:03;13.50;;;8.15;;
62071;SDS011;48031;48.542;13.232;2024-02-16T09:56:13;16.15;;;8.43;;
62071;SDS011;48031;48.542;13.232;2024-02-16T10:00:15;23.20;;;8.35;;
62071;SDS011;48031;48.542;13.232;2024-02-16T10:04:17;18.90;;;8.70;;
62071;SDS011;48031;48.542;13.232;2024-02-16T10:08:19;12.52;;;8.32;;
62071;SDS011;48031;48.542;13.232;2024-02-16T10:12:21;14.02;;;7.13;;
62071;SDS011;48031;48.542;13.232;2024-02-16T10:16:23;18.10;;;8.07;;
62071;SDS011;48031;48.542;13.232;2024-02-16T10:20:25;13.13;;;8.23;;
62071;SDS011;48031;48.542;13.232;2024-02-16T10:24:27;11.65;;;7.70;;
62071;SDS011;48031;48.542;13.232;2024-02-16T10:28:29;12.15;;;7.30;;
62071;SDS011;48031;48.542;13.232;2024-02-16T10:32:32;12.50;;;8.13;;
62071;SDS011;48031;48.542;13.232;2024-02-16T10:36:35;13.23;;;7.75;;
62071;SDS011;48031;48.542;13.232;2024-02-16T10:40:38;15.95;;;8.43;;
62071;SDS011;48031;48.542;13.232;2024-02-16T10:44:40;11.45;;;7.22;;
62071;SDS011;48031;48.542;13.232;2024-02-16T10:48:44;13.85;;;8.35;;
62071;SDS011;48031;48.542;13.232;2024-02-16T10:52:46;10.82;;;7.35;;
62071;SDS011;48031;48.542;13.232;2024-02-16T10:56:52;11.25;;;7.05;;
62071;SDS011;48031;48.542;13.232;2024-02-16T11:00:55;10.85;;;7.30;;
62071;SDS011;48031;48.542;13.232;2024-02-16T11:04:57;10.98;;;7.38;;
62071;SDS011;48031;48.542;13.232;2024-02-16T11:09:03;11.50;;;7.28;;
62071;SDS011;48031;48.542;13.232;2024-02-16T11:13:12;11.68;;;6.45;;
62071;SDS011;48031;48.542;13.232;2024-02-16T11:17:20;13.52;;;7.13;;
62071;SDS011;48031;48.542;13.232;2024-02-16T11:21:23;12.57;;;7.72;;
62071;SDS011;48031;48.542;13.232;2024-02-16T11:25:31;11.85;;;6.20;;
62071;SDS011;48031;48.542;13.232;2024-02-16T11:29:35;9.02;;;6.40;;
62071;SDS011;48031;48.542;13.232;2024-02-16T11:33:42;12.00;;;7.45;;
62071;SDS011;48031;48.542;13.232;2024-02-16T11:37:44;8.75;;;6.32;;
62071;SDS011;48031;48.542;13.232;2024-02-16T11:41:58;8.35;;;6.28;;
62071;SDS011;48031;48.542;13.232;2024-02-16T11:46:14;11.35;;;8.15;;
62071;SDS011;48031;48.542;13.232;2024-02-16T11:50:17;10.77;;;7.63;;
62071;SDS011;48031;48.542;13.232;2024-02-16T11:54:19;9.38;;;6.25;;
62071;SDS011;48031;48.542;13.232;2024-02-16T11:58:21;11.90;;;7.60;;
62071;SDS011;48031;48.542;13.232;2024-02-16T12:02:24;9.57;;;7.05;;
62071;SDS011;48031;48.542;13.232;2024-02-16T12:06:27;8.80;;;5.30;;
62071;SDS011;48031;48.542;13.232;2024-02-16T12:10:32;11.73;;;7.30;;
62071;SDS011;48031;48.542;13.232;2024-02-16T12:14:34;10.15;;;5.68;;
62071;SDS011;48031;48.542;13.232;2024-02-16T12:18:36;10.57;;;5.90;;
62071;SDS011;48031;48.542;13.232;2024-02-16T12:22:38;12.27;;;6.45;;
62071;SDS011;48031;48.542;13.232;2024-02-16T12:26:40;5.90;;;4.63;;
62071;SDS011;48031;48.542;13.232;2024-02-16T12:30:42;7.30;;;5.30;;
62071;SDS011;48031;48.542;13.232;2024-02-16T12:34:44;6.32;;;5.28;;
62071;SDS011;48031;48.542;13.232;2024-02-16T12:38:46;8.20;;;5.13;;
62071;SDS011;48031;48.542;13.232;2024-02-16T12:42:48;6.00;;;4.88;;
62071;SDS011;48031;48.542;13.232;2024-02-16T12:46:50;8.77;;;6.07;;
62071;SDS011;48031;48.542;13.232;2024-02-16T12:50:52;8.77;;;5.45;;
62071;SDS011;48031;48.542;13.232;2024-02-16T12:54:54;12.77;;;6.10;;
62071;SDS011;48031;48.542;13.232;2024-02-16T12:58:59;8.93;;;5.43;;
62071;SDS011;48031;48.542;13.232;2024-02-16T13:03:03;10.90;;;5.55;;
62071;SDS011;48031;48.542;13.232;2024-02-16T13:07:06;7.53;;;5.00;;
62071;SDS011;48031;48.542;13.232;2024-02-16T13:11:07;13.68;;;6.30;;
62071;SDS011;48031;48.542;13.232;2024-02-16T13:15:10;11.02;;;6.50;;
62071;SDS011;48031;48.542;13.232;2024-02-16T13:19:28;13.43;;;6.45;;
62071;SDS011;48031;48.542;13.232;2024-02-16T13:23:30;10.88;;;7.00;;
62071;SDS011;48031;48.542;13.232;2024-02-16T13:27:32;9.98;;;6.15;;
62071;SDS011;48031;48.542;13.232;2024-02-16T13:31:36;13.77;;;6.60;;
62071;SDS011;48031;48.542;13.232;2024-02-16T13:35:38;10.30;;;5.55;;
62071;SDS011;48031;48.542;13.232;2024-02-16T13:39:40;11.85;;;5.95;;
62071;SDS011;48031;48.542;13.232;2024-02-16T13:43:43;10.40;;;5.35;;
62071;SDS011;48031;48.542;13.232;2024-02-16T13:47:45;9.48;;;4.70;;
62071;SDS011;48031;48.542;13.232;2024-02-16T13:51:46;11.50;;;6.35;;
62071;SDS011;48031;48.542;13.232;2024-02-16T13:55:48;7.35;;;4.95;;
62071;SDS011;48031;48.542;13.232;2024-02-16T13:59:50;9.77;;;5.43;;
62071;SDS011;48031;48.542;13.232;2024-02-16T14:03:52;11.02;;;5.30;;
62071;SDS011;48031;48.542;13.232;2024-02-16T14:07:54;6.47;;;5.00;;
62071;SDS011;48031;48.542;13.232;2024-02-16T14:12:02;8.35;;;5.10;;
62071;SDS011;48031;48.542;13.232;2024-02-16T14:16:04;6.85;;;5.30;;
62071;SDS011;48031;48.542;13.232;2024-02-16T14:20:06;10.48;;;6.05;;
62071;SDS011;48031;48.542;13.232;2024-02-16T14:24:08;11.45;;;5.90;;
62071;SDS011;48031;48.542;13.232;2024-02-16T14:28:12;10.23;;;5.32;;
62071;SDS011;48031;48.542;13.232;2024-02-16T14:32:15;7.13;;;4.95;;
62071;SDS011;48031;48.542;13.232;2024-02-16T14:36:16;10.57;;;5.90;;
62071;SDS011;48031;48.542;13.232;2024-02-16T14:40:18;14.10;;;5.43;;
62071;SDS011;48031;48.542;13.232;2024-02-16T14:44:21;11.00;;;4.78;;
62071;SDS011;48031;48.542;13.232;2024-02-16T14:48:23;8.82;;;5.07;;
62071;SDS011;48031;48.542;13.232;2024-02-16T14:52:27;12.85;;;6.15;;
62071;SDS011;48031;48.542;13.232;2024-02-16T14:56:30;6.68;;;4.80;;
62071;SDS011;48031;48.542;13.232;2024-02-16T15:00:32;6.93;;;4.80;;
62071;SDS011;48031;48.542;13.232;2024-02-16T15:04:35;8.30;;;5.57;;
62071;SDS011;48031;48.542;13.232;2024-02-16T15:08:39;9.32;;;4.88;;
62071;SDS011;48031;48.542;13.232;2024-02-16T15:12:41;10.48;;;5.93;;
62071;SDS011;48031;48.542;13.232;2024-02-16T15:16:44;13.55;;;5.65;;
62071;SDS011;48031;48.542;13.232;2024-02-16T15:20:46;10.60;;;5.70;;
62071;SDS011;48031;48.542;13.232;2024-02-16T15:24:49;9.90;;;5.05;;
62071;SDS011;48031;48.542;13.232;2024-02-16T15:28:51;6.15;;;4.45;;
62071;SDS011;48031;48.542;13.232;2024-02-16T15:32:53;7.63;;;4.78;;
62071;SDS011;48031;48.542;13.232;2024-02-16T15:36:56;7.75;;;5.22;;
62071;SDS011;48031;48.542;13.232;2024-02-16T15:40:59;5.68;;;3.63;;
62071;SDS011;48031;48.542;13.232;2024-02-16T15:45:02;8.23;;;5.40;;
62071;SDS011;48031;48.542;13.232;2024-02-16T15:49:06;8.25;;;4.57;;
62071;SDS011;48031;48.542;13.232;2024-02-16T15:53:08;5.95;;;3.90;;
62071;SDS011;48031;48.542;13.232;2024-02-16T15:57:10;9.07;;;5.15;;
62071;SDS011;48031;48.542;13.232;2024-02-16T16:01:13;9.02;;;5.30;;
62071;SDS011;48031;48.542;13.232;2024-02-16T16:05:15;9.50;;;5.53;;
62071;SDS011;48031;48.542;13.232;2024-02-16T16:09:18;10.75;;;6.13;;
62071;SDS011;48031;48.542;13.232;2024-02-16T16:13:20;9.60;;;5.88;;
62071;SDS011;48031;48.542;13.232;2024-02-16T16:17:21;7.70;;;4.80;;
62071;SDS011;48031;48.542;13.232;2024-02-16T16:21:23;8.57;;;5.18;;
62071;SDS011;48031;48.542;13.232;2024-02-16T16:25:25;8.73;;;5.38;;
62071;SDS011;48031;48.542;13.232;2024-02-16T16:29:27;9.98;;;6.03;;
62071;SDS011;48031;48.542;13.232;2024-02-16T16:33:29;12.23;;;7.38;;
62071;SDS011;48031;48.542;13.232;2024-02-16T16:37:31;11.32;;;6.47;;
62071;SDS011;48031;48.542;13.232;2024-02-16T16:41:33;13.52;;;8.00;;
62071;SDS011;48031;48.542;13.232;2024-02-16T16:45:35;15.15;;;8.40;;
62071;SDS011;48031;48.542;13.232;2024-02-16T16:49:39;13.10;;;8.00;;
62071;SDS011;48031;48.542;13.232;2024-02-16T16:53:42;14.20;;;8.32;;
62071;SDS011;48031;48.542;13.232;2024-02-16T16:57:44;15.68;;;7.97;;
62071;SDS011;48031;48.542;13.232;2024-02-16T17:01:47;13.05;;;7.25;;
62071;SDS011;48031;48.542;13.232;2024-02-16T17:05:49;13.32;;;7.65;;
62071;SDS011;48031;48.542;13.232;2024-02-16T17:09:51;16.10;;;9.20;;
62071;SDS011;48031;48.542;13.232;2024-02-16T17:13:55;15.45;;;8.82;;
62071;SDS011;48031;48.542;13.232;2024-02-16T17:17:58;26.40;;;13.35;;
62071;SDS011;48031;48.542;13.232;2024-02-16T17:22:00;24.77;;;12.73;;
62071;SDS011;48031;48.542;13.232;2024-02-16T17:26:02;23.25;;;11.90;;
62071;SDS011;48031;48.542;13.232;2024-02-16T17:30:04;18.08;;;9.65;;
62071;SDS011;48031;48.542;13.232;2024-02-16T17:34:06;16.30;;;8.95;;
62071;SDS011;48031;48.542;13.232;2024-02-16T17:38:10;16.40;;;8.75;;
62071;SDS011;48031;48.542;13.232;2024-02-16T17:42:12;17.80;;;9.63;;
62071;SDS011;48031;48.542;13.232;2024-02-16T17:46:14;15.77;;;8.98;;
62071;SDS011;48031;48.542;13.232;2024-02-16T17:50:17;13.77;;;7.50;;
62071;SDS011;48031;48.542;13.232;2024-02-16T17:54:19;15.20;;;8.00;;
62071;SDS011;48031;48.542;13.232;2024-02-16T17:58:20;19.77;;;10.20;;
62071;SDS011;48031;48.542;13.232;2024-02-16T18:02:23;23.05;;;12.80;;
62071;SDS011;48031;48.542;13.232;2024-02-16T18:06:39;24.20;;;13.05;;
62071;SDS011;48031;48.542;13.232;2024-02-16T18:10:43;20.25;;;11.73;;
62071;SDS011;48031;48.542;13.232;2024-02-16T18:14:45;20.15;;;10.45;;
62071;SDS011;48031;48.542;13.232;2024-02-16T18:18:47;23.90;;;11.40;;
62071;SDS011;48031;48.542;13.232;2024-02-16T18:22:49;20.42;;;10.30;;
62071;SDS011;48031;48.542;13.232;2024-02-16T18:26:51;23.95;;;11.60;;
62071;SDS011;48031;48.542;13.232;2024-02-16T18:30:53;22.83;;;11.98;;
62071;SDS011;48031;48.542;13.232;2024-02-16T18:34:56;21.38;;;10.68;;
62071;SDS011;48031;48.542;13.232;2024-02-16T18:38:58;16.90;;;8.80;;
62071;SDS011;48031;48.542;13.232;2024-02-16T18:43:01;16.90;;;9.30;;
62071;SDS011;48031;48.542;13.232;2024-02-16T18:47:04;17.85;;;10.20;;
62071;SDS011;48031;48.542;13.232;2024-02-16T18:51:06;22.15;;;12.40;;
62071;SDS011;48031;48.542;13.232;2024-02-16T18:55:08;19.95;;;10.52;;
62071;SDS011;48031;48.542;13.232;2024-02-16T18:59:11;20.73;;;11.13;;
62071;SDS011;48031;48.542;13.232;2024-02-16T19:03:15;15.57;;;8.18;;
62071;SDS011;48031;48.542;13.232;2024-02-16T19:07:16;13.10;;;6.85;;
62071;SDS011;48031;48.542;13.232;2024-02-16T19:11:20;13.00;;;6.75;;
62071;SDS011;48031;48.542;13.232;2024-02-16T19:15:22;18.65;;;10.00;;
62071;SDS011;48031;48.542;13.232;2024-02-16T19:19:24;21.27;;;10.77;;
62071;SDS011;48031;48.542;13.232;2024-02-16T19:23:29;20.75;;;10.05;;
62071;SDS011;48031;48.542;13.232;2024-02-16T19:27:32;22.05;;;10.23;;
62071;SDS011;48031;48.542;13.232;2024-02-16T19:31:33;22.10;;;11.35;;
62071;SDS011;48031;48.542;13.232;2024-02-16T19:35:35;26.08;;;12.82;;
62071;SDS011;48031;48.542;13.232;2024-02-16T19:39:38;19.83;;;10.63;;
62071;SDS011;48031;48.542;13.232;2024-02-16T19:43:40;14.43;;;8.30;;
62071;SDS011;48031;48.542;13.232;2024-02-16T19:47:42;11.75;;;6.93;;
62071;SDS011;48031;48.542;13.232;2024-02-16T19:51:46;20.25;;;11.52;;
62071;SDS011;48031;48.542;13.232;2024-02-16T19:55:48;18.20;;;9.20;;
62071;SDS011;48031;48.542;13.232;2024-02-16T19:59:50;16.35;;;8.27;;
62071;SDS011;48031;48.542;13.232;2024-02-16T20:03:52;17.23;;;9.82;;
62071;SDS011;48031;48.542;13.232;2024-02-16T20:07:54;18.77;;;9.50;;
62071;SDS011;48031;48.542;13.232;2024-02-16T20:11:56;14.93;;;7.40;;
62071;SDS011;48031;48.542;13.232;2024-02-16T20:15:58;15.77;;;8.60;;
62071;SDS011;48031;48.542;13.232;2024-02-16T20:20:00;18.75;;;10.63;;
62071;SDS011;48031;48.542;13.232;2024-02-16T20:24:07;15.15;;;8.73;;
62071;SDS011;48031;48.542;13.232;2024-02-16T20:28:09;19.27;;;10.93;;
62071;SDS011;48031;48.542;13.232;2024-02-16T20:32:11;21.80;;;8.65;;
62071;SDS011;48031;48.542;13.232;2024-02-16T20:36:12;12.43;;;6.60;;
62071;SDS011;48031;48.542;13.232;2024-02-16T20:40:15;16.95;;;9.55;;
62071;SDS011;48031;48.542;13.232;2024-02-16T20:44:17;18.63;;;9.82;;
62071;SDS011;48031;48.542;13.232;2024-02-16T20:48:19;13.30;;;7.70;;
62071;SDS011;48031;48.542;13.232;2024-02-16T20:52:22;17.75;;;9.52;;
62071;SDS011;48031;48.542;13.232;2024-02-16T20:56:24;22.00;;;10.15;;
62071;SDS011;48031;48.542;13.232;2024-02-16T21:00:26;17.15;;;10.43;;
62071;SDS011;48031;48.542;13.232;2024-02-16T21:04:31;15.23;;;8.65;;
62071;SDS011;48031;48.542;13.232;2024-02-16T21:08:34;23.42;;;12.90;;
62071;SDS011;48031;48.542;13.232;2024-02-16T21:12:39;16.85;;;9.77;;
62071;SDS011;48031;48.542;13.232;2024-02-16T21:16:41;19.48;;;9.85;;
62071;SDS011;48031;48.542;13.232;2024-02-16T21:20:43;18.45;;;10.07;;
62071;SDS011;48031;48.542;13.232;2024-02-16T21:24:45;10.27;;;5.65;;
62071;SDS011;48031;48.542;13.232;2024-02-16T21:28:46;13.57;;;7.10;;
62071;SDS011;48031;48.542;13.232;2024-02-16T21:32:48;14.80;;;8.90;;
62071;SDS011;48031;48.542;13.232;2024-02-16T21:36:52;15.75;;;8.63;;
62071;SDS011;48031;48.542;13.232;2024-02-16T21:41:00;15.40;;;8.35;;
62071;SDS011;48031;48.542;13.232;2024-02-16T21:45:05;11.95;;;5.75;;
62071;SDS011;48031;48.542;13.232;2024-02-16T21:49:09;8.73;;;5.22;;
62071;SDS011;48031;48.542;13.232;2024-02-16T21:53:11;13.30;;;5.70;;
62071;SDS011;48031;48.542;13.232;2024-02-16T21:57:15;18.52;;;8.88;;
62071;SDS011;48031;48.542;13.232;2024-02-16T22:01:19;16.50;;;8.20;;
62071;SDS011;48031;48.542;13.232;2024-02-16T22:05:21;19.45;;;11.02;;
62071;SDS011;48031;48.542;13.232;2024-02-16T22:09:23;15.85;;;7.70;;
62071;SDS011;48031;48.542;13.232;2024-02-16T22:13:25;17.25;;;9.88;;
62071;SDS011;48031;48.542;13.232;2024-02-16T22:17:26;14.98;;;6.55;;
62071;SDS011;48031;48.542;13.232;2024-02-16T22:21:28;16.27;;;8.15;;
62071;SDS011;48031;48.542;13.232;2024-02-16T22:25:40;16.50;;;9.77;;
62071;SDS011;48031;48.542;13.232;2024-02-16T22:29:42;11.23;;;5.35;;
62071;SDS011;48031;48.542;13.232;2024-02-16T22:33:46;14.50;;;8.20;;
62071;SDS011;48031;48.542;13.232;2024-02-16T22:37:49;15.25;;;8.05;;
62071;SDS011;48031;48.542;13.232;2024-02-16T22:41:51;14.07;;;7.82;;
62071;SDS011;48031;48.542;13.232;2024-02-16T22:45:53;16.90;;;9.20;;
62071;SDS011;48031;48.542;13.232;2024-02-16T22:49:55;20.13;;;11.88;;
62071;SDS011;48031;48.542;13.232;2024-02-16T22:53:57;21.58;;;11.82;;
62071;SDS011;48031;48.542;13.232;2024-02-16T22:58:01;18.02;;;9.57;;
62071;SDS011;48031;48.542;13.232;2024-02-16T23:02:03;23.83;;;10.98;;
62071;SDS011;48031;48.542;13.232;2024-02-16T23:06:06;21.67;;;10.93;;
62071;SDS011;48031;48.542;13.232;2024-02-16T23:10:08;19.15;;;9.57;;
62071;SDS011;48031;48.542;13.232;2024-02-16T23:14:12;16.88;;;9.00;;
62071;SDS011;48031;48.542;13.232;2024-02-16T23:18:14;21.55;;;9.93;;
62071;SDS011;48031;48.542;13.232;2024-02-16T23:22:16;17.23;;;8.88;;
62071;SDS011;48031;48.542;13.232;2024-02-16T23:26:18;18.95;;;8.18;;
62071;SDS011;48031;48.542;13.232;2024-02-16T23:30:20;21.38;;;9.80;;
62071;SDS011;48031;48.542;13.232;2024-02-16T23:34:22;17.42;;;8.13;;
62071;SDS011;48031;48.542;13.232;2024-02-16T23:38:24;30.83;;;14.98;;
62071;SDS011;48031;48.542;13.232;2024-02-16T23:42:26;29.38;;;11.80;;